Time;durP1;ratioP1;P1;durP2;ratioP2;P2;SDS_P1;SDS_P2;PMS_P1;PMS_P2;Temp;Humidity;BMP_temperature;BMP_pressure;BME280_temperature;BME280_humidity;BME280_pressure;Samples;Min_cycle;Max_cycle;Signal;HPM_P1;HPM_P2
2023/08/16 00:01:33;;;;;;;12.80;9.10;;;;;;;;;;7392749;19;19995;-70
2023/08/16 00:03:58;;;;;;;12.77;8.70;;;;;;;;;;7369829;19;20010;-70
2023/08/16 00:06:23;;;;;;;13.38;8.75;;;;;;;;;;7370536;19;20014;-70
2023/08/16 00:08:51;;;;;;;12.15;8.82;;;;;;;;;;7371478;19;20506;-70
2023/08/16 00:11:16;;;;;;;13.73;8.52;;;;;;;;;;7370475;19;20003;-69
2023/08/16 00:13:42;;;;;;;43.50;16.05;;;;;;;;;;7372481;19;20009;-70
2023/08/16 00:16:07;;;;;;;12.70;8.18;;;;;;;;;;7393183;19;20468;-70
2023/08/16 00:18:33;;;;;;;13.63;8.73;;;;;;;;;;7368548;19;20419;-70
2023/08/16 00:20:59;;;;;;;13.85;8.52;;;;;;;;;;7371095;19;20019;-69
2023/08/16 00:23:24;;;;;;;14.15;10.38;;;;;;;;;;7370139;19;20011;-70
2023/08/16 00:25:50;;;;;;;16.27;10.63;;;;;;;;;;7370668;19;20461;-70
2023/08/16 00:28:15;;;;;;;15.38;10.45;;;;;;;;;;7392879;19;20007;-70
2023/08/16 00:30:41;;;;;;;16.38;11.00;;;;;;;;;;7369016;19;20015;-70
2023/08/16 00:33:06;;;;;;;32.85;29.35;;;;;;;;;;7370491;19;20362;-70
2023/08/16 00:35:31;;;;;;;70.88;26.38;;;;;;;;;;7368761;19;20074;-70
2023/08/16 00:37:58;;;;;;;23.10;11.68;;;;;;;;;;7370306;19;20010;-70
2023/08/16 00:40:24;;;;;;;18.42;10.82;;;;;;;;;;7391784;19;20034;-71
2023/08/16 00:42:49;;;;;;;15.48;10.57;;;;;;;;;;7369741;19;20129;-69
2023/08/16 00:45:15;;;;;;;16.27;10.35;;;;;;;;;;7368128;19;20360;-70
2023/08/16 00:47:41;;;;;;;17.25;10.90;;;;;;;;;;7370257;19;20146;-69
2023/08/16 00:50:08;;;;;;;35.50;14.70;;;;;;;;;;7370598;19;20010;-70
2023/08/16 00:52:33;;;;;;;16.73;11.93;;;;;;;;;;7390072;19;20011;-70
2023/08/16 00:54:59;;;;;;;14.35;10.20;;;;;;;;;;7367756;19;20502;-70
2023/08/16 00:57:24;;;;;;;29.65;13.00;;;;;;;;;;7368634;19;20006;-70
2023/08/16 00:59:50;;;;;;;22.05;11.73;;;;;;;;;;7369517;19;20022;-70
2023/08/16 01:02:17;;;;;;;19.45;10.43;;;;;;;;;;7368383;19;20017;-70
2023/08/16 01:04:45;;;;;;;16.60;10.57;;;;;;;;;;7366561;19;20011;-70
2023/08/16 01:07:11;;;;;;;15.88;10.85;;;;;;;;;;7387544;19;19998;-70
2023/08/16 01:09:36;;;;;;;36.63;13.05;;;;;;;;;;7366189;19;20046;-70
2023/08/16 01:12:36;;;;;;;33.80;14.75;;;;;;;;;;7364697;19;20010;-69
2023/08/16 01:15:12;;;;;;;17.40;11.18;;;;;;;;;;7363915;19;20444;-70
2023/08/16 01:17:38;;;;;;;19.50;11.45;;;;;;;;;;7365444;19;20020;-70
2023/08/16 01:20:07;;;;;;;217.57;23.42;;;;;;;;;;7366961;19;21374;-70
2023/08/16 01:22:57;;;;;;;19.88;12.30;;;;;;;;;;7388160;19;20006;-70
2023/08/16 01:25:47;;;;;;;24.30;13.45;;;;;;;;;;7377845;19;20010;-69
2023/08/16 01:28:14;;;;;;;23.08;13.82;;;;;;;;;;7382272;19;20036;-69
2023/08/16 01:30:45;;;;;;;31.98;13.38;;;;;;;;;;7376107;19;20054;-69
2023/08/16 01:33:12;;;;;;;20.45;12.80;;;;;;;;;;7369596;19;20010;-69
2023/08/16 01:35:38;;;;;;;28.35;13.65;;;;;;;;;;7368219;19;20010;-70
2023/08/16 01:38:04;;;;;;;24.55;12.32;;;;;;;;;;7368760;19;20007;-69
2023/08/16 01:40:53;;;;;;;19.35;11.48;;;;;;;;;;7392734;19;20010;-70
2023/08/16 01:43:19;;;;;;;18.65;11.90;;;;;;;;;;7370069;19;20010;-69
2023/08/16 01:45:47;;;;;;;16.08;11.23;;;;;;;;;;7366845;19;20037;-70
2023/08/16 01:48:14;;;;;;;17.35;10.70;;;;;;;;;;7368624;19;20078;-70
2023/08/16 01:50:40;;;;;;;14.65;9.73;;;;;;;;;;7367123;19;20007;-70
2023/08/16 01:53:05;;;;;;;16.00;10.10;;;;;;;;;;7367859;19;20042;-70
2023/08/16 01:55:30;;;;;;;15.63;9.68;;;;;;;;;;7388183;19;20030;-70
2023/08/16 01:57:56;;;;;;;13.88;9.48;;;;;;;;;;7367177;19;20038;-69
2023/08/16 02:00:21;;;;;;;12.05;8.57;;;;;;;;;;7367448;19;20416;-69
2023/08/16 02:02:46;;;;;;;17.60;8.65;;;;;;;;;;7366103;19;20109;-69
2023/08/16 02:05:12;;;;;;;14.95;8.52;;;;;;;;;;7365982;19;20103;-69
2023/08/16 02:07:37;;;;;;;19.00;9.55;;;;;;;;;;7389251;19;20002;-69
2023/08/16 02:10:03;;;;;;;15.18;9.00;;;;;;;;;;7366947;19;20007;-69
2023/08/16 02:12:28;;;;;;;24.73;10.43;;;;;;;;;;7366706;19;20037;-70
2023/08/16 02:14:53;;;;;;;24.85;11.95;;;;;;;;;;7363586;19;20007;-70
2023/08/16 02:17:19;;;;;;;33.55;12.07;;;;;;;;;;7366551;19;21181;-71
2023/08/16 02:19:44;;;;;;;25.50;11.80;;;;;;;;;;7367136;19;20014;-72
2023/08/16 02:22:09;;;;;;;24.30;12.10;;;;;;;;;;7388771;19;20011;-70
2023/08/16 02:24:34;;;;;;;23.25;11.63;;;;;;;;;;7365714;19;20125;-69
2023/08/16 02:27:00;;;;;;;20.23;10.65;;;;;;;;;;7367837;19;20045;-68
2023/08/16 02:29:25;;;;;;;24.35;11.90;;;;;;;;;;7367520;19;20002;-69
2023/08/16 02:31:50;;;;;;;34.90;12.27;;;;;;;;;;7365503;19;20365;-69
2023/08/16 02:34:16;;;;;;;27.45;13.07;;;;;;;;;;7386532;19;20013;-70
2023/08/16 02:36:41;;;;;;;26.38;12.63;;;;;;;;;;7365465;19;20002;-70
2023/08/16 02:39:08;;;;;;;28.55;13.57;;;;;;;;;;7365818;19;20060;-69
2023/08/16 02:41:33;;;;;;;40.30;14.25;;;;;;;;;;7370887;19;20006;-69
2023/08/16 02:43:59;;;;;;;66.70;16.63;;;;;;;;;;7372572;19;20366;-69
2023/08/16 02:46:24;;;;;;;48.67;15.68;;;;;;;;;;7395456;19;20085;-70
2023/08/16 02:48:49;;;;;;;47.58;15.07;;;;;;;;;;7372346;19;20003;-69
2023/08/16 02:51:14;;;;;;;40.42;15.05;;;;;;;;;;7371685;19;20031;-70
2023/08/16 02:53:40;;;;;;;36.50;15.35;;;;;;;;;;7371786;19;20121;-70
2023/08/16 02:56:05;;;;;;;69.65;16.00;;;;;;;;;;7373560;19;20011;-69
2023/08/16 02:58:30;;;;;;;63.65;15.27;;;;;;;;;;7394740;19;20080;-70
2023/08/16 03:00:56;;;;;;;43.33;15.90;;;;;;;;;;7371460;19;20113;-70
2023/08/16 03:03:21;;;;;;;64.47;16.17;;;;;;;;;;7371971;19;20532;-68
2023/08/16 03:05:47;;;;;;;44.17;15.82;;;;;;;;;;7372932;19;20028;-69
2023/08/16 03:08:12;;;;;;;40.10;17.40;;;;;;;;;;7374795;19;20010;-70
2023/08/16 03:10:37;;;;;;;47.70;15.98;;;;;;;;;;7394338;19;20034;-69
2023/08/16 03:13:03;;;;;;;49.15;16.40;;;;;;;;;;7370531;19;20416;-69
2023/08/16 03:15:28;;;;;;;36.72;16.92;;;;;;;;;;7367821;19;20445;-69
2023/08/16 03:17:53;;;;;;;39.85;15.90;;;;;;;;;;7369970;19;20746;-69
2023/08/16 03:20:19;;;;;;;36.58;16.20;;;;;;;;;;7369817;19;20082;-69
2023/08/16 03:22:44;;;;;;;60.28;16.55;;;;;;;;;;7369296;19;20002;-70
2023/08/16 03:25:09;;;;;;;59.40;17.70;;;;;;;;;;7389310;19;19998;-70
2023/08/16 03:27:35;;;;;;;61.35;19.15;;;;;;;;;;7368814;19;20738;-71
2023/08/16 03:30:00;;;;;;;64.18;18.80;;;;;;;;;;7371706;19;20066;-69
2023/08/16 03:32:26;;;;;;;44.78;19.27;;;;;;;;;;7371312;19;20006;-69
2023/08/16 03:34:51;;;;;;;62.60;18.65;;;;;;;;;;7370876;19;20011;-69
2023/08/16 03:37:16;;;;;;;68.32;19.05;;;;;;;;;;7394312;19;20014;-70
2023/08/16 03:39:42;;;;;;;113.32;18.38;;;;;;;;;;7372925;19;20018;-69
2023/08/16 03:42:07;;;;;;;65.22;19.15;;;;;;;;;;7373485;19;20010;-69
2023/08/16 03:44:32;;;;;;;60.53;19.10;;;;;;;;;;7369947;19;20090;-70
2023/08/16 03:46:58;;;;;;;149.90;20.80;;;;;;;;;;7372448;19;20002;-69
2023/08/16 03:49:23;;;;;;;76.07;18.48;;;;;;;;;;7393441;19;20036;-69
2023/08/16 03:51:48;;;;;;;106.72;18.95;;;;;;;;;;7367852;19;20021;-69
2023/08/16 03:54:14;;;;;;;56.10;18.10;;;;;;;;;;7369193;19;20006;-69
2023/08/16 03:56:39;;;;;;;75.15;17.00;;;;;;;;;;7371353;19;20359;-68
2023/08/16 03:59:04;;;;;;;109.53;17.83;;;;;;;;;;7370271;19;20014;-69
2023/08/16 04:01:30;;;;;;;62.25;16.60;;;;;;;;;;7389744;19;20011;-70
2023/08/16 04:03:56;;;;;;;67.00;15.55;;;;;;;;;;7368312;19;20010;-70
2023/08/16 04:06:21;;;;;;;67.60;14.77;;;;;;;;;;7368358;19;20013;-70
2023/08/16 04:08:47;;;;;;;44.47;14.90;;;;;;;;;;7367905;19;20018;-71
2023/08/16 04:11:12;;;;;;;52.42;15.68;;;;;;;;;;7369297;19;20094;-70
2023/08/16 04:13:37;;;;;;;33.67;15.30;;;;;;;;;;7390799;19;20031;-70
2023/08/16 04:16:03;;;;;;;41.38;16.05;;;;;;;;;;7369743;19;20010;-69
2023/08/16 04:18:28;;;;;;;68.78;14.35;;;;;;;;;;7367222;19;20007;-70
2023/08/16 04:20:54;;;;;;;35.15;14.98;;;;;;;;;;7368509;19;20010;-70
2023/08/16 04:23:21;;;;;;;56.72;14.52;;;;;;;;;;7366721;19;20337;-71
2023/08/16 04:25:46;;;;;;;72.40;15.23;;;;;;;;;;7368674;19;20003;-69
2023/08/16 04:28:11;;;;;;;75.15;15.98;;;;;;;;;;7391223;19;20001;-69
2023/08/16 04:30:37;;;;;;;49.53;16.08;;;;;;;;;;7367773;19;20357;-69
2023/08/16 04:33:02;;;;;;;71.47;16.33;;;;;;;;;;7370120;19;20570;-68
2023/08/16 04:35:28;;;;;;;112.13;16.25;;;;;;;;;;7368459;19;20027;-69
2023/08/16 04:37:53;;;;;;;40.40;15.38;;;;;;;;;;7369433;19;20058;-70
2023/08/16 04:40:18;;;;;;;26.75;12.43;;;;;;;;;;7391062;19;20062;-69
2023/08/16 04:42:44;;;;;;;26.80;13.38;;;;;;;;;;7368511;19;20022;-69
2023/08/16 04:45:10;;;;;;;26.88;12.50;;;;;;;;;;7368529;19;20013;-69
2023/08/16 04:47:35;;;;;;;23.17;11.50;;;;;;;;;;7369119;19;20018;-69
2023/08/16 04:50:03;;;;;;;25.75;12.18;;;;;;;;;;7368597;19;20007;-69
2023/08/16 04:52:29;;;;;;;21.30;13.23;;;;;;;;;;7387564;19;20013;-69
2023/08/16 04:54:54;;;;;;;24.15;12.05;;;;;;;;;;7363607;19;19998;-69
2023/08/16 04:57:20;;;;;;;28.30;14.05;;;;;;;;;;7365949;19;20703;-69
2023/08/16 04:59:45;;;;;;;29.27;13.95;;;;;;;;;;7365841;19;20149;-69
2023/08/16 05:02:10;;;;;;;31.92;13.43;;;;;;;;;;7365977;19;20070;-70
2023/08/16 05:04:35;;;;;;;34.60;13.77;;;;;;;;;;7386651;19;20073;-69
2023/08/16 05:07:01;;;;;;;39.45;13.93;;;;;;;;;;7367909;19;20854;-69
2023/08/16 05:09:26;;;;;;;37.13;14.15;;;;;;;;;;7369553;19;20094;-69
2023/08/16 05:11:51;;;;;;;50.58;16.10;;;;;;;;;;7369182;19;20022;-69
2023/08/16 05:14:17;;;;;;;82.38;13.85;;;;;;;;;;7367985;19;20418;-69
2023/08/16 05:16:42;;;;;;;40.80;13.93;;;;;;;;;;7368998;19;20326;-68
2023/08/16 05:19:07;;;;;;;89.50;15.25;;;;;;;;;;7390855;19;20345;-69
2023/08/16 05:21:33;;;;;;;70.45;16.17;;;;;;;;;;7367174;19;20017;-68
2023/08/16 05:23:59;;;;;;;60.47;15.10;;;;;;;;;;7366795;19;20082;-69
2023/08/16 05:26:24;;;;;;;44.13;16.10;;;;;;;;;;7368405;19;20050;-69
2023/08/16 05:28:50;;;;;;;39.88;13.77;;;;;;;;;;7359398;19;19998;-70
2023/08/16 05:31:15;;;;;;;63.08;15.57;;;;;;;;;;7389606;19;20100;-69
2023/08/16 05:33:40;;;;;;;76.45;14.35;;;;;;;;;;7376709;19;20045;-68
2023/08/16 05:36:09;;;;;;;45.42;15.45;;;;;;;;;;7380499;19;20046;-68
2023/08/16 05:38:34;;;;;;;91.40;13.88;;;;;;;;;;7367588;19;20013;-69
2023/08/16 05:41:03;;;;;;;119.00;14.63;;;;;;;;;;7368616;19;19996;-69
2023/08/16 05:43:28;;;;;;;60.28;14.23;;;;;;;;;;7389039;19;20074;-69
2023/08/16 05:45:53;;;;;;;55.08;15.63;;;;;;;;;;7365638;19;20011;-69
2023/08/16 05:48:18;;;;;;;72.70;15.38;;;;;;;;;;7367219;19;20471;-69
2023/08/16 05:50:44;;;;;;;64.80;15.43;;;;;;;;;;7367288;19;20007;-68
2023/08/16 05:53:09;;;;;;;92.60;16.70;;;;;;;;;;7367496;19;20500;-71
2023/08/16 05:55:34;;;;;;;66.50;16.33;;;;;;;;;;7385849;19;20013;-69
2023/08/16 05:58:00;;;;;;;58.08;16.02;;;;;;;;;;7367808;19;20357;-69
2023/08/16 06:00:25;;;;;;;98.45;15.98;;;;;;;;;;7369888;19;20045;-69
2023/08/16 06:02:52;;;;;;;61.97;16.42;;;;;;;;;;7367282;19;20014;-69
2023/08/16 06:05:18;;;;;;;76.68;16.40;;;;;;;;;;7364662;19;20035;-69
2023/08/16 06:07:44;;;;;;;75.13;18.00;;;;;;;;;;7367156;19;20516;-69
2023/08/16 06:10:09;;;;;;;80.05;16.70;;;;;;;;;;7388470;19;20010;-68
2023/08/16 06:12:34;;;;;;;71.60;17.08;;;;;;;;;;7365854;19;20015;-69
2023/08/16 06:15:00;;;;;;;74.30;16.83;;;;;;;;;;7365997;19;20010;-69
2023/08/16 06:17:25;;;;;;;67.70;18.60;;;;;;;;;;7374932;19;20732;-69
2023/08/16 06:19:50;;;;;;;64.07;18.40;;;;;;;;;;7374408;19;20015;-69
2023/08/16 06:22:16;;;;;;;56.90;17.73;;;;;;;;;;7396182;19;20006;-69
2023/08/16 06:24:41;;;;;;;69.60;18.48;;;;;;;;;;7370875;19;20460;-69
2023/08/16 06:27:08;;;;;;;68.80;18.38;;;;;;;;;;7374192;19;20504;-69
2023/08/16 06:29:35;;;;;;;56.20;17.88;;;;;;;;;;7373514;19;20010;-69
2023/08/16 06:32:00;;;;;;;56.90;17.85;;;;;;;;;;7373323;19;19996;-69
2023/08/16 06:34:26;;;;;;;51.30;15.98;;;;;;;;;;7394520;19;20006;-70
2023/08/16 06:36:52;;;;;;;59.92;16.45;;;;;;;;;;7373532;19;20011;-69
2023/08/16 06:39:17;;;;;;;60.30;16.90;;;;;;;;;;7373150;19;20020;-70
2023/08/16 06:41:44;;;;;;;64.43;18.10;;;;;;;;;;7374187;19;20009;-69
2023/08/16 06:44:09;;;;;;;73.28;17.23;;;;;;;;;;7372556;19;19999;-70
2023/08/16 06:46:34;;;;;;;70.07;17.20;;;;;;;;;;7392328;19;19998;-70
2023/08/16 06:49:00;;;;;;;60.70;16.95;;;;;;;;;;7371131;19;20010;-70
2023/08/16 06:51:26;;;;;;;50.03;16.00;;;;;;;;;;7369968;19;20011;-69
2023/08/16 06:53:51;;;;;;;53.83;17.83;;;;;;;;;;7369649;19;20516;-70
2023/08/16 06:56:16;;;;;;;63.10;18.05;;;;;;;;;;7370820;19;20006;-70
2023/08/16 06:58:42;;;;;;;57.28;17.67;;;;;;;;;;7371173;19;20473;-71
2023/08/16 07:01:08;;;;;;;54.55;18.02;;;;;;;;;;7392038;19;20007;-69
2023/08/16 07:03:34;;;;;;;54.85;17.65;;;;;;;;;;7372339;19;20389;-70
2023/08/16 07:05:59;;;;;;;49.45;18.38;;;;;;;;;;7373351;19;20078;-70
2023/08/16 07:08:24;;;;;;;63.63;19.13;;;;;;;;;;7373926;19;20021;-69
2023/08/16 07:10:50;;;;;;;52.95;19.00;;;;;;;;;;7372891;19;20543;-70
2023/08/16 07:13:15;;;;;;;63.75;19.95;;;;;;;;;;7394146;19;20537;-70
2023/08/16 07:15:41;;;;;;;49.97;19.33;;;;;;;;;;7371575;19;20009;-69
2023/08/16 07:18:06;;;;;;;54.25;19.45;;;;;;;;;;7373438;19;20121;-69
2023/08/16 07:20:32;;;;;;;62.30;21.15;;;;;;;;;;7372859;19;20002;-70
2023/08/16 07:22:58;;;;;;;57.10;20.55;;;;;;;;;;7373048;19;20014;-71
2023/08/16 07:25:26;;;;;;;58.85;21.83;;;;;;;;;;7391695;19;20003;-69
2023/08/16 07:27:51;;;;;;;54.40;21.25;;;;;;;;;;7372145;19;20006;-69
2023/08/16 07:30:17;;;;;;;53.05;21.02;;;;;;;;;;7372944;19;20361;-68
2023/08/16 07:32:42;;;;;;;53.60;20.55;;;;;;;;;;7370572;19;20459;-69
2023/08/16 07:35:09;;;;;;;49.60;20.08;;;;;;;;;;7370602;19;20637;-69
2023/08/16 07:37:34;;;;;;;47.63;19.55;;;;;;;;;;7394196;19;20515;-69
2023/08/16 07:39:59;;;;;;;48.38;19.58;;;;;;;;;;7370814;19;20006;-69
2023/08/16 07:42:25;;;;;;;52.90;19.70;;;;;;;;;;7372909;19;20477;-69
2023/08/16 07:44:50;;;;;;;47.28;19.95;;;;;;;;;;7372019;19;20474;-69
2023/08/16 07:47:15;;;;;;;41.17;18.20;;;;;;;;;;7371604;19;20038;-70
2023/08/16 07:49:44;;;;;;;37.10;18.70;;;;;;;;;;7366080;19;20030;-71
2023/08/16 07:52:10;;;;;;;42.80;18.42;;;;;;;;;;7392305;19;20228;-69
2023/08/16 07:54:35;;;;;;;45.25;19.35;;;;;;;;;;7368164;19;20077;-71
2023/08/16 07:57:00;;;;;;;39.90;18.48;;;;;;;;;;7371387;19;20078;-69
2023/08/16 07:59:26;;;;;;;42.80;18.38;;;;;;;;;;7372220;19;20014;-69
2023/08/16 08:01:52;;;;;;;41.67;16.83;;;;;;;;;;7370666;19;20009;-69
2023/08/16 08:04:18;;;;;;;35.75;17.27;;;;;;;;;;7391789;19;20021;-69
2023/08/16 08:06:44;;;;;;;29.88;14.63;;;;;;;;;;7370464;19;20086;-69
2023/08/16 08:09:09;;;;;;;26.92;14.18;;;;;;;;;;7369842;19;20628;-69
2023/08/16 08:11:36;;;;;;;26.40;13.25;;;;;;;;;;7370537;19;20002;-70
2023/08/16 08:14:02;;;;;;;28.50;14.38;;;;;;;;;;7369604;19;20023;-70
2023/08/16 08:16:27;;;;;;;28.38;13.93;;;;;;;;;;7392787;19;20006;-70
2023/08/16 08:18:53;;;;;;;25.83;12.90;;;;;;;;;;7369672;19;20106;-69
2023/08/16 08:21:18;;;;;;;23.23;12.77;;;;;;;;;;7369972;19;20008;-69
2023/08/16 08:23:43;;;;;;;21.75;12.07;;;;;;;;;;7369851;19;20003;-70
2023/08/16 08:26:10;;;;;;;28.63;13.40;;;;;;;;;;7368331;19;20070;-70
2023/08/16 08:28:36;;;;;;;23.67;12.63;;;;;;;;;;7392100;19;20348;-69
2023/08/16 08:31:04;;;;;;;21.58;12.98;;;;;;;;;;7370380;19;20002;-71
2023/08/16 08:33:29;;;;;;;21.50;12.77;;;;;;;;;;7369787;19;20003;-70
2023/08/16 08:35:55;;;;;;;19.27;10.02;;;;;;;;;;7370339;19;20128;-69
2023/08/16 08:38:22;;;;;;;20.90;11.98;;;;;;;;;;7369593;19;20014;-70
2023/08/16 08:40:55;;;;;;;22.90;11.77;;;;;;;;;;7359335;19;20003;-69
2023/08/16 08:43:24;;;;;;;18.50;11.32;;;;;;;;;;7392035;19;20577;-70
2023/08/16 08:45:51;;;;;;;27.83;11.25;;;;;;;;;;7369590;19;20025;-69
2023/08/16 08:48:16;;;;;;;19.27;9.80;;;;;;;;;;7370253;19;20013;-70
2023/08/16 08:50:43;;;;;;;10.43;7.25;;;;;;;;;;7369807;19;20105;-71
2023/08/16 08:53:10;;;;;;;12.90;7.80;;;;;;;;;;7372339;19;20021;-70
2023/08/16 08:55:37;;;;;;;16.58;7.97;;;;;;;;;;7389509;19;20036;-70
2023/08/16 08:58:04;;;;;;;13.10;7.53;;;;;;;;;;7369898;19;20006;-68
2023/08/16 09:00:34;;;;;;;14.35;8.02;;;;;;;;;;7369011;19;20013;-69
2023/08/16 09:03:07;;;;;;;14.05;7.85;;;;;;;;;;7368838;19;20062;-70
2023/08/16 09:05:33;;;;;;;11.20;6.82;;;;;;;;;;7368303;19;20595;-70
2023/08/16 09:07:59;;;;;;;11.57;7.38;;;;;;;;;;7371732;19;20023;-69
2023/08/16 09:10:24;;;;;;;12.82;7.55;;;;;;;;;;7392017;19;20002;-69
2023/08/16 09:12:51;;;;;;;11.18;7.25;;;;;;;;;;7369482;19;20488;-69
2023/08/16 09:15:16;;;;;;;13.45;7.20;;;;;;;;;;7368883;19;20077;-69
2023/08/16 09:17:41;;;;;;;14.73;7.00;;;;;;;;;;7370345;19;20027;-69
2023/08/16 09:20:07;;;;;;;9.98;6.97;;;;;;;;;;7370385;19;20508;-69
2023/08/16 09:22:32;;;;;;;10.88;7.13;;;;;;;;;;7391604;19;20500;-69
2023/08/16 09:24:58;;;;;;;10.88;6.90;;;;;;;;;;7367249;19;20011;-69
2023/08/16 09:27:25;;;;;;;10.82;6.88;;;;;;;;;;7367818;19;20800;-69
2023/08/16 09:29:54;;;;;;;13.25;7.95;;;;;;;;;;7369288;19;20003;-70
2023/08/16 09:32:21;;;;;;;9.63;6.43;;;;;;;;;;7368822;19;20007;-69
2023/08/16 09:34:47;;;;;;;9.38;6.40;;;;;;;;;;7375948;19;20002;-68
2023/08/16 09:37:14;;;;;;;14.73;7.82;;;;;;;;;;7406126;19;20001;-69
2023/08/16 09:39:40;;;;;;;13.98;7.75;;;;;;;;;;7381403;19;20013;-71
2023/08/16 09:42:08;;;;;;;10.65;6.93;;;;;;;;;;7369569;19;20006;-70
2023/08/16 09:44:36;;;;;;;9.45;6.72;;;;;;;;;;7368135;19;20821;-70
2023/08/16 09:47:13;;;;;;;9.88;6.05;;;;;;;;;;7368683;19;20002;-69
2023/08/16 09:49:39;;;;;;;11.32;6.72;;;;;;;;;;7388699;19;20070;-69
2023/08/16 09:52:10;;;;;;;9.95;5.97;;;;;;;;;;7379907;19;20031;-70
2023/08/16 09:54:35;;;;;;;13.02;6.15;;;;;;;;;;7366795;19;20018;-70
2023/08/16 09:57:01;;;;;;;10.35;5.88;;;;;;;;;;7365582;19;20003;-70
2023/08/16 09:59:27;;;;;;;15.25;6.45;;;;;;;;;;7367587;19;20399;-70
2023/08/16 10:01:54;;;;;;;17.83;6.80;;;;;;;;;;7365920;19;20071;-69
2023/08/16 10:04:24;;;;;;;12.27;7.00;;;;;;;;;;7387657;19;20468;-70
2023/08/16 10:06:49;;;;;;;13.27;7.22;;;;;;;;;;7364272;19;20017;-69
2023/08/16 10:09:15;;;;;;;9.07;5.82;;;;;;;;;;7364132;19;20006;-70
2023/08/16 10:11:43;;;;;;;7.57;5.20;;;;;;;;;;7365268;19;20002;-69
2023/08/16 10:14:08;;;;;;;9.10;6.57;;;;;;;;;;7364542;19;20002;-71
2023/08/16 10:16:38;;;;;;;9.05;5.55;;;;;;;;;;7386713;19;20436;-68
2023/08/16 10:19:04;;;;;;;7.25;5.22;;;;;;;;;;7360548;19;20497;-69
2023/08/16 10:21:33;;;;;;;9.73;6.50;;;;;;;;;;7365484;19;20027;-69
2023/08/16 10:24:00;;;;;;;11.27;6.75;;;;;;;;;;7365718;19;21032;-70
2023/08/16 10:26:30;;;;;;;8.13;4.85;;;;;;;;;;7367344;19;20035;-70
2023/08/16 10:28:58;;;;;;;10.05;5.57;;;;;;;;;;7366517;19;20010;-69
2023/08/16 10:31:33;;;;;;;8.18;5.40;;;;;;;;;;7388310;19;20027;-70
2023/08/16 10:34:00;;;;;;;7.65;5.28;;;;;;;;;;7365714;19;20339;-69
2023/08/16 10:36:26;;;;;;;13.82;5.50;;;;;;;;;;7365829;19;20370;-70
2023/08/16 10:38:55;;;;;;;10.75;5.15;;;;;;;;;;7366858;19;20007;-69
2023/08/16 10:41:24;;;;;;;6.90;4.80;;;;;;;;;;7367293;19;20083;-70
2023/08/16 10:43:51;;;;;;;10.00;4.90;;;;;;;;;;7365896;19;20560;-71
2023/08/16 10:46:43;;;;;;;8.10;4.80;;;;;;;;;;7389204;19;20013;-71
2023/08/16 10:49:08;;;;;;;7.75;4.30;;;;;;;;;;7364006;19;20006;-70
2023/08/16 10:51:51;;;;;;;11.45;6.05;;;;;;;;;;7364900;19;20476;-69
2023/08/16 10:54:17;;;;;;;8.40;5.22;;;;;;;;;;7365645;19;20011;-69
2023/08/16 10:56:49;;;;;;;10.20;4.88;;;;;;;;;;7365481;19;20483;-70
2023/08/16 10:59:16;;;;;;;10.00;5.13;;;;;;;;;;7366039;19;20024;-70
2023/08/16 11:01:45;;;;;;;10.00;5.07;;;;;;;;;;7366324;19;20047;-71
2023/08/16 11:04:11;;;;;;;8.95;4.80;;;;;;;;;;7393467;19;20455;-70
2023/08/16 11:06:39;;;;;;;7.60;4.75;;;;;;;;;;7372775;19;20010;-70
2023/08/16 11:09:05;;;;;;;7.75;4.20;;;;;;;;;;7374225;19;20014;-70
2023/08/16 11:11:30;;;;;;;6.78;4.45;;;;;;;;;;7373209;19;20006;-70
2023/08/16 11:13:59;;;;;;;7.93;4.90;;;;;;;;;;7372256;19;19998;-69
2023/08/16 11:16:24;;;;;;;7.82;4.50;;;;;;;;;;7395354;19;19998;-70
2023/08/16 11:18:49;;;;;;;7.70;4.47;;;;;;;;;;7372893;19;20007;-70
2023/08/16 11:21:16;;;;;;;7.30;5.10;;;;;;;;;;7373235;19;20038;-70
2023/08/16 11:23:42;;;;;;;7.30;4.18;;;;;;;;;;7372633;19;20118;-71
2023/08/16 11:26:09;;;;;;;7.43;4.15;;;;;;;;;;7372796;19;20014;-70
2023/08/16 11:28:35;;;;;;;8.30;4.40;;;;;;;;;;7394368;19;19998;-70
2023/08/16 11:31:03;;;;;;;8.50;4.45;;;;;;;;;;7372227;19;20009;-71
2023/08/16 11:33:32;;;;;;;9.65;4.15;;;;;;;;;;7371734;19;20003;-70
2023/08/16 11:35:59;;;;;;;7.18;3.83;;;;;;;;;;7372290;19;20009;-69
2023/08/16 11:38:24;;;;;;;8.48;4.32;;;;;;;;;;7372072;19;20006;-69
2023/08/16 11:40:51;;;;;;;7.72;4.07;;;;;;;;;;7372417;19;20002;-71
2023/08/16 11:43:17;;;;;;;6.68;3.60;;;;;;;;;;7393838;19;20012;-70
2023/08/16 11:45:43;;;;;;;8.55;3.92;;;;;;;;;;7371404;19;20003;-71
2023/08/16 11:48:08;;;;;;;6.72;3.55;;;;;;;;;;7372720;19;20009;-70
2023/08/16 11:50:34;;;;;;;5.85;3.80;;;;;;;;;;7372090;19;20373;-70
2023/08/16 11:53:03;;;;;;;6.43;4.07;;;;;;;;;;7370464;19;20609;-71
2023/08/16 11:55:33;;;;;;;7.35;4.03;;;;;;;;;;7389993;19;19991;-71
2023/08/16 11:58:16;;;;;;;8.32;4.13;;;;;;;;;;7371460;19;20020;-70
2023/08/16 12:00:42;;;;;;;6.90;4.18;;;;;;;;;;7372208;19;20002;-70
2023/08/16 12:03:11;;;;;;;8.25;3.80;;;;;;;;;;7371841;19;20002;-71
2023/08/16 12:05:38;;;;;;;6.93;4.18;;;;;;;;;;7369616;19;20010;-72
2023/08/16 12:08:08;;;;;;;7.68;4.10;;;;;;;;;;7371206;19;20003;-70
2023/08/16 12:10:34;;;;;;;7.50;4.20;;;;;;;;;;7392298;19;20010;-71
2023/08/16 12:13:13;;;;;;;8.10;4.15;;;;;;;;;;7366610;19;20890;-71
2023/08/16 12:15:39;;;;;;;7.55;3.85;;;;;;;;;;7368893;19;20007;-71
2023/08/16 12:18:05;;;;;;;7.97;4.20;;;;;;;;;;7371124;19;20041;-71
2023/08/16 12:20:30;;;;;;;9.00;4.72;;;;;;;;;;7370409;19;20138;-71
2023/08/16 12:22:57;;;;;;;8.65;4.30;;;;;;;;;;7370712;19;20028;-71
2023/08/16 12:25:23;;;;;;;6.95;4.30;;;;;;;;;;7390278;19;20018;-71
2023/08/16 12:27:48;;;;;;;7.55;4.20;;;;;;;;;;7370502;19;20010;-70
2023/08/16 12:30:13;;;;;;;8.85;4.45;;;;;;;;;;7370759;19;20353;-70
2023/08/16 12:32:40;;;;;;;8.60;4.05;;;;;;;;;;7369460;19;20042;-71
2023/08/16 12:35:05;;;;;;;10.95;4.60;;;;;;;;;;7368165;19;20010;-70
2023/08/16 12:37:31;;;;;;;8.98;4.68;;;;;;;;;;7392586;19;20011;-70
2023/08/16 12:39:56;;;;;;;7.60;4.25;;;;;;;;;;7360601;19;20025;-70
2023/08/16 12:42:22;;;;;;;12.57;4.63;;;;;;;;;;7369263;19;20014;-69
2023/08/16 12:44:47;;;;;;;11.50;4.40;;;;;;;;;;7368678;19;20086;-70
2023/08/16 12:47:13;;;;;;;8.73;4.60;;;;;;;;;;7370261;19;20018;-71
2023/08/16 12:49:38;;;;;;;8.63;4.63;;;;;;;;;;7391076;19;20383;-69
2023/08/16 12:52:04;;;;;;;10.95;4.75;;;;;;;;;;7369485;19;20097;-71
2023/08/16 12:54:30;;;;;;;6.60;4.05;;;;;;;;;;7367590;19;20062;-71
2023/08/16 12:56:55;;;;;;;9.40;4.40;;;;;;;;;;7369336;19;20006;-70
2023/08/16 12:59:21;;;;;;;7.78;4.57;;;;;;;;;;7368093;19;20007;-70
2023/08/16 13:01:47;;;;;;;9.48;4.78;;;;;;;;;;7365606;19;20049;-71
2023/08/16 13:04:13;;;;;;;8.20;3.65;;;;;;;;;;7389481;19;20010;-70
2023/08/16 13:06:38;;;;;;;9.98;4.35;;;;;;;;;;7368603;19;20017;-70
2023/08/16 13:09:06;;;;;;;9.68;4.50;;;;;;;;;;7369173;19;20006;-69
2023/08/16 13:11:32;;;;;;;9.30;4.35;;;;;;;;;;7367127;19;19998;-70
2023/08/16 13:13:57;;;;;;;13.55;4.35;;;;;;;;;;7367449;19;20031;-70
2023/08/16 13:16:22;;;;;;;6.82;4.32;;;;;;;;;;7390245;19;20002;-70
2023/08/16 13:18:48;;;;;;;9.75;4.57;;;;;;;;;;7367850;19;20010;-69
2023/08/16 13:21:13;;;;;;;7.75;4.60;;;;;;;;;;7368598;19;20002;-70
2023/08/16 13:23:38;;;;;;;7.70;4.55;;;;;;;;;;7368787;19;20343;-70
2023/08/16 13:26:04;;;;;;;13.15;4.57;;;;;;;;;;7364479;19;20045;-72
2023/08/16 13:28:29;;;;;;;8.55;4.85;;;;;;;;;;7389938;19;20477;-70
2023/08/16 13:30:54;;;;;;;15.45;4.53;;;;;;;;;;7367645;19;20010;-70
2023/08/16 13:33:20;;;;;;;7.13;4.20;;;;;;;;;;7368536;19;20020;-70
2023/08/16 13:35:46;;;;;;;7.68;4.28;;;;;;;;;;7367764;19;20063;-71
2023/08/16 13:38:14;;;;;;;7.90;4.18;;;;;;;;;;7368954;19;20030;-71
2023/08/16 13:40:40;;;;;;;9.25;4.00;;;;;;;;;;7381777;19;20077;-71
2023/08/16 13:43:06;;;;;;;6.60;4.28;;;;;;;;;;7389360;19;20401;-70
2023/08/16 13:45:31;;;;;;;7.70;4.30;;;;;;;;;;7383513;19;20025;-70
2023/08/16 13:47:57;;;;;;;6.60;3.75;;;;;;;;;;7387672;19;21619;-70
2023/08/16 13:50:23;;;;;;;7.30;3.90;;;;;;;;;;7375052;19;20521;-71
2023/08/16 13:52:49;;;;;;;8.40;4.07;;;;;;;;;;7366268;19;20013;-70
2023/08/16 13:55:14;;;;;;;8.35;4.13;;;;;;;;;;7387826;19;20007;-71
2023/08/16 13:57:40;;;;;;;8.15;3.63;;;;;;;;;;7367079;19;20007;-70
2023/08/16 14:00:09;;;;;;;9.00;4.28;;;;;;;;;;7367492;19;20018;-70
2023/08/16 14:02:36;;;;;;;6.82;4.40;;;;;;;;;;7365803;19;20082;-70
2023/08/16 14:05:02;;;;;;;14.90;5.97;;;;;;;;;;7364756;19;20030;-70
2023/08/16 14:07:27;;;;;;;8.00;3.88;;;;;;;;;;7387974;19;20006;-70
2023/08/16 14:09:52;;;;;;;8.80;4.43;;;;;;;;;;7367371;19;20013;-70
2023/08/16 14:12:18;;;;;;;7.78;3.92;;;;;;;;;;7365886;19;20014;-71
2023/08/16 14:14:43;;;;;;;6.47;4.25;;;;;;;;;;7366373;19;20066;-70
2023/08/16 14:17:09;;;;;;;7.13;4.13;;;;;;;;;;7367325;19;20055;-71
2023/08/16 14:19:34;;;;;;;7.43;4.00;;;;;;;;;;7389582;19;20010;-71
2023/08/16 14:21:59;;;;;;;7.55;4.10;;;;;;;;;;7366085;19;20409;-70